Time;durP1;ratioP1;P1;durP2;ratioP2;P2;SDS_P1;SDS_P2;PMS_P1;PMS_P2;Temp;Humidity;BMP_temperature;BMP_pressure;BME280_temperature;BME280_humidity;BME280_pressure;Samples;Min_cycle;Max_cycle;Signal;HPM_P1;HPM_P2
2022/03/05 00:01:36;;;;;;;;;;;;;;;;;;5092571;28;20003;-57
2022/03/05 00:04:02;;;;;;;;;;;;;;;;;;5093061;28;20356;-60
2022/03/05 00:06:29;;;;;;;;;;;;;;;;;;5093154;28;19920;-60
2022/03/05 00:08:55;;;;;;;;;;;;;;;;;;5092809;28;19930;-54
2022/03/05 00:11:22;;;;;;;;;;;;;;;;;;5092123;28;19909;-61
2022/03/05 00:13:48;;;;;;;;;;;;;;;;;;5092954;28;20034;-58
2022/03/05 00:16:15;;;;;;;;;;;;;;;;;;5092586;28;19916;-57
2022/03/05 00:18:41;;;;;;;;;;;;;;;;;;5092007;28;20058;-58
2022/03/05 00:21:08;;;;;;;;;;;;;;;;;;5092715;28;19966;-58
2022/03/05 00:23:35;;;;;;;;;;;;;;;;;;5092443;28;19918;-56
2022/03/05 00:26:01;;;;;;;;;;;;;;;;;;5092619;28;19923;-59
2022/03/05 00:28:28;;;;;;;;;;;;;;;;;;5092508;28;19914;-58
2022/03/05 00:30:58;;;;;;;;;;;;;;;;;;5092508;28;20363;-57
2022/03/05 00:33:24;;;;;;;;;;;;;;;;;;5092299;28;20003;-55
2022/03/05 00:35:51;;;;;;;;;;;;;;;;;;5092826;28;19904;-59
2022/03/05 00:38:17;;;;;;;;;;;;;;;;;;5092382;28;19954;-60
2022/03/05 00:40:44;;;;;;;;;;;;;;;;;;5092416;28;19904;-58
2022/03/05 00:43:10;;;;;;;;;;;;;;;;;;5092081;28;19916;-60
2022/03/05 00:45:37;;;;;;;;;;;;;;;;;;5094560;28;19969;-58
2022/03/05 00:48:04;;;;;;;;;;;;;;;;;;5096915;28;19908;-55
2022/03/05 00:50:30;;;;;;;;;;;;;;;;;;5096924;28;19908;-58
2022/03/05 00:52:57;;;;;;;;;;;;;;;;;;5096744;28;19908;-56
2022/03/05 00:55:23;;;;;;;;;;;;;;;;;;5096375;28;19995;-56
2022/03/05 00:57:50;;;;;;;;;;;;;;;;;;5096287;28;19912;-58
2022/03/05 01:00:16;;;;;;;;;;;;;;;;;;5096228;28;19959;-59
2022/03/05 01:02:43;;;;;;;;;;;;;;;;;;5094921;28;20212;-54
2022/03/05 01:05:09;;;;;;;;;;;;;;;;;;5095205;28;19924;-60
2022/03/05 01:07:36;;;;;;;;;;;;;;;;;;5096072;28;19909;-60
2022/03/05 01:10:02;;;;;;;;;;;;;;;;;;5095907;28;19974;-59
2022/03/05 01:12:29;;;;;;;;;;;;;;;;;;5096113;28;19914;-59
2022/03/05 01:14:55;;;;;;;;;;;;;;;;;;5096049;28;19916;-53
2022/03/05 01:17:22;;;;;;;;;;;;;;;;;;5095717;28;20002;-58
2022/03/05 01:19:48;;;;;;;;;;;;;;;;;;5096035;28;19908;-60
2022/03/05 01:22:15;;;;;;;;;;;;;;;;;;5095534;28;19912;-59
2022/03/05 01:24:41;;;;;;;;;;;;;;;;;;5095416;28;19908;-57
2022/03/05 01:27:08;;;;;;;;;;;;;;;;;;5095187;28;19916;-59
2022/03/05 01:29:34;;;;;;;;;;;;;;;;;;5095418;28;20355;-57
2022/03/05 01:32:01;;;;;;;;;;;;;;;;;;5095781;28;19999;-59
2022/03/05 01:34:27;;;;;;;;;;;;;;;;;;5095823;28;19984;-56
2022/03/05 01:36:54;;;;;;;;;;;;;;;;;;5095328;28;20324;-58
2022/03/05 01:39:20;;;;;;;;;;;;;;;;;;5094858;28;19987;-60
2022/03/05 01:41:48;;;;;;;;;;;;;;;;;;5095353;28;20267;-58
2022/03/05 01:44:14;;;;;;;;;;;;;;;;;;5095662;28;19915;-59
2022/03/05 01:46:41;;;;;;;;;;;;;;;;;;5094020;28;19958;-60
2022/03/05 01:49:07;;;;;;;;;;;;;;;;;;5095004;28;20258;-61
2022/03/05 01:51:34;;;;;;;;;;;;;;;;;;5095420;28;19912;-57
2022/03/05 01:54:00;;;;;;;;;;;;;;;;;;5095072;28;19908;-52
2022/03/05 01:56:27;;;;;;;;;;;;;;;;;;5095518;28;19961;-52
2022/03/05 01:58:53;;;;;;;;;;;;;;;;;;5093433;28;20002;-53
2022/03/05 02:01:20;;;;;;;;;;;;;;;;;;5094810;28;19916;-59
2022/03/05 02:03:46;;;;;;;;;;;;;;;;;;5093897;28;20267;-59
2022/03/05 02:06:13;;;;;;;;;;;;;;;;;;5089702;28;19942;-56
2022/03/05 02:08:39;;;;;;;;;;;;;;;;;;5091513;28;19928;-55
2022/03/05 02:11:06;;;;;;;;;;;;;;;;;;5092319;28;19947;-54
2022/03/05 02:13:32;;;;;;;;;;;;;;;;;;5092320;28;19912;-54
2022/03/05 02:15:59;;;;;;;;;;;;;;;;;;5091320;28;19912;-58
2022/03/05 02:18:25;;;;;;;;;;;;;;;;;;5093707;28;19908;-56
2022/03/05 02:20:52;;;;;;;;;;;;;;;;;;5093644;28;20279;-56
2022/03/05 02:23:18;;;;;;;;;;;;;;;;;;5094319;28;20008;-59
2022/03/05 02:25:44;;;;;;;;;;;;;;;;;;5091151;28;19923;-59
2022/03/05 02:28:11;;;;;;;;;;;;;;;;;;5095400;28;20381;-59
2022/03/05 02:30:37;;;;;;;;;;;;;;;;;;5095060;28;19915;-58
2022/03/05 02:33:04;;;;;;;;;;;;;;;;;;5095052;28;19908;-59
2022/03/05 02:35:30;;;;;;;;;;;;;;;;;;5094995;28;20411;-54
2022/03/05 02:37:57;;;;;;;;;;;;;;;;;;5110175;28;20418;-60
2022/03/05 02:40:23;;;;;;;;;;;;;;;;;;5114943;28;19908;-56
2022/03/05 02:42:50;;;;;;;;;;;;;;;;;;5115253;28;19994;-59
2022/03/05 02:45:16;;;;;;;;;;;;;;;;;;5113626;28;19916;-57
2022/03/05 02:47:42;;;;;;;;;;;;;;;;;;5114868;28;20045;-60
2022/03/05 02:50:09;;;;;;;;;;;;;;;;;;5114797;28;19908;-59
2022/03/05 02:52:35;;;;;;;;;;;;;;;;;;5113572;28;20262;-58
2022/03/05 02:55:02;;;;;;;;;;;;;;;;;;5114421;28;19930;-59
2022/03/05 02:57:28;;;;;;;;;;;;;;;;;;5114055;28;19933;-59
2022/03/05 02:59:55;;;;;;;;;;;;;;;;;;5101678;28;19922;-59
2022/03/05 03:02:21;;;;;;;;;;;;;;;;;;5092785;28;19924;-56
2022/03/05 03:04:48;;;;;;;;;;;;;;;;;;5088978;28;19914;-57
2022/03/05 03:07:14;;;;;;;;;;;;;;;;;;5091512;28;19911;-58
2022/03/05 03:09:41;;;;;;;;;;;;;;;;;;5090094;28;20350;-60
2022/03/05 03:12:07;;;;;;;;;;;;;;;;;;5090887;28;20366;-60
2022/03/05 03:14:34;;;;;;;;;;;;;;;;;;5090196;28;19916;-59
2022/03/05 03:17:00;;;;;;;;;;;;;;;;;;5089009;28;19924;-58
2022/03/05 03:19:27;;;;;;;;;;;;;;;;;;5090549;28;19936;-56
2022/03/05 03:21:53;;;;;;;;;;;;;;;;;;5090439;28;20408;-61
2022/03/05 03:24:19;;;;;;;;;;;;;;;;;;5090168;28;20266;-63
2022/03/05 03:26:46;;;;;;;;;;;;;;;;;;5087660;28;19963;-58
2022/03/05 03:29:12;;;;;;;;;;;;;;;;;;5089937;28;19915;-60
2022/03/05 03:31:39;;;;;;;;;;;;;;;;;;5090244;28;20022;-59
2022/03/05 03:34:05;;;;;;;;;;;;;;;;;;5089523;28;19952;-60
2022/03/05 03:36:32;;;;;;;;;;;;;;;;;;5088871;28;19962;-60
2022/03/05 03:38:58;;;;;;;;;;;;;;;;;;5089385;28;20350;-60
2022/03/05 03:41:25;;;;;;;;;;;;;;;;;;5089098;28;20321;-60
2022/03/05 03:43:51;;;;;;;;;;;;;;;;;;5089963;28;20357;-59
2022/03/05 03:46:18;;;;;;;;;;;;;;;;;;5090075;28;19969;-59
2022/03/05 03:48:44;;;;;;;;;;;;;;;;;;5088677;28;19914;-58
2022/03/05 03:51:11;;;;;;;;;;;;;;;;;;5092908;28;19915;-59
2022/03/05 03:53:37;;;;;;;;;;;;;;;;;;5093256;28;19912;-61
2022/03/05 03:56:04;;;;;;;;;;;;;;;;;;5093454;28;19908;-64
2022/03/05 03:58:30;;;;;;;;;;;;;;;;;;5093074;28;19920;-59
2022/03/05 04:00:57;;;;;;;;;;;;;;;;;;5092728;28;19908;-58
2022/03/05 04:03:23;;;;;;;;;;;;;;;;;;5091539;28;20446;-61
2022/03/05 04:05:49;;;;;;;;;;;;;;;;;;5092093;28;19927;-57
2022/03/05 04:11:01;;;;;;;;;;;;;;;;;;5092636;28;19931;-62
2022/03/05 04:13:27;;;;;;;;;;;;;;;;;;5093546;28;19961;-63
2022/03/05 04:15:54;;;;;;;;;;;;;;;;;;5092216;28;19934;-65
2022/03/05 04:18:20;;;;;;;;;;;;;;;;;;5091720;28;20369;-63
2022/03/05 04:20:47;;;;;;;;;;;;;;;;;;5091997;28;19954;-63
2022/03/05 04:23:13;;;;;;;;;;;;;;;;;;5092704;28;19947;-64
2022/03/05 04:25:40;;;;;;;;;;;;;;;;;;5092587;28;19939;-63
2022/03/05 04:28:06;;;;;;;;;;;;;;;;;;5092793;28;19972;-60
2022/03/05 04:30:33;;;;;;;;;;;;;;;;;;5092882;28;19999;-61
2022/03/05 04:32:59;;;;;;;;;;;;;;;;;;5092409;28;19953;-60
2022/03/05 04:35:25;;;;;;;;;;;;;;;;;;5092510;28;19955;-61
2022/03/05 04:37:52;;;;;;;;;;;;;;;;;;5092521;28;19916;-56
2022/03/05 04:40:18;;;;;;;;;;;;;;;;;;5092211;28;19908;-59
2022/03/05 04:42:45;;;;;;;;;;;;;;;;;;5092873;28;20334;-63
2022/03/05 04:45:12;;;;;;;;;;;;;;;;;;5092160;28;19920;-58
2022/03/05 04:47:39;;;;;;;;;;;;;;;;;;5092208;28;19908;-61
2022/03/05 04:50:06;;;;;;;;;;;;;;;;;;5092288;28;19912;-59
2022/03/05 04:52:32;;;;;;;;;;;;;;;;;;5092261;28;20231;-61
2022/03/05 04:54:58;;;;;;;;;;;;;;;;;;5092279;28;20215;-59
2022/03/05 04:57:25;;;;;;;;;;;;;;;;;;5092111;28;20302;-57
2022/03/05 04:59:51;;;;;;;;;;;;;;;;;;5092693;28;19908;-61
2022/03/05 05:02:18;;;;;;;;;;;;;;;;;;5092218;28;19920;-62
2022/03/05 05:04:45;;;;;;;;;;;;;;;;;;5092190;28;20350;-60
2022/03/05 05:07:11;;;;;;;;;;;;;;;;;;5091988;28;20378;-62
2022/03/05 05:09:38;;;;;;;;;;;;;;;;;;5092078;28;20316;-63
2022/03/05 05:12:05;;;;;;;;;;;;;;;;;;5092143;28;19908;-64
2022/03/05 05:14:31;;;;;;;;;;;;;;;;;;5091927;28;19919;-62
2022/03/05 05:16:58;;;;;;;;;;;;;;;;;;5091780;28;19976;-61
2022/03/05 05:19:24;;;;;;;;;;;;;;;;;;5091843;28;19916;-60
2022/03/05 05:21:51;;;;;;;;;;;;;;;;;;5092269;28;19908;-57
2022/03/05 05:24:17;;;;;;;;;;;;;;;;;;5092512;28;19915;-65
2022/03/05 05:26:44;;;;;;;;;;;;;;;;;;5091918;28;19917;-61
2022/03/05 05:29:10;;;;;;;;;;;;;;;;;;5092018;28;19909;-61
2022/03/05 05:31:37;;;;;;;;;;;;;;;;;;5093944;28;20472;-62
2022/03/05 05:34:03;;;;;;;;;;;;;;;;;;5096059;28;19908;-54
2022/03/05 05:36:30;;;;;;;;;;;;;;;;;;5095661;28;19965;-61
2022/03/05 05:38:56;;;;;;;;;;;;;;;;;;5096021;28;19908;-57
2022/03/05 05:41:23;;;;;;;;;;;;;;;;;;5095032;28;19961;-64
2022/03/05 05:43:49;;;;;;;;;;;;;;;;;;5095592;28;19920;-61
2022/03/05 05:46:16;;;;;;;;;;;;;;;;;;5095755;28;19951;-62
2022/03/05 05:48:42;;;;;;;;;;;;;;;;;;5095638;28;20316;-60
2022/03/05 05:51:09;;;;;;;;;;;;;;;;;;5095343;28;19912;-63
2022/03/05 05:53:35;;;;;;;;;;;;;;;;;;5095061;28;19908;-58
2022/03/05 05:56:02;;;;;;;;;;;;;;;;;;5095749;28;20376;-61
2022/03/05 05:58:28;;;;;;;;;;;;;;;;;;5096130;28;19908;-62
2022/03/05 06:00:55;;;;;;;;;;;;;;;;;;5095719;28;19908;-61
2022/03/05 06:03:21;;;;;;;;;;;;;;;;;;5094920;28;19920;-65
2022/03/05 06:05:48;;;;;;;;;;;;;;;;;;5095300;28;19938;-62
2022/03/05 06:08:14;;;;;;;;;;;;;;;;;;5095281;28;19915;-62
2022/03/05 06:10:40;;;;;;;;;;;;;;;;;;5094938;28;19953;-64
2022/03/05 06:13:07;;;;;;;;;;;;;;;;;;5095142;28;19908;-64
2022/03/05 06:15:33;;;;;;;;;;;;;;;;;;5095061;28;20258;-62
2022/03/05 06:18:00;;;;;;;;;;;;;;;;;;5094376;28;19915;-64
2022/03/05 06:20:27;;;;;;;;;;;;;;;;;;5094537;28;19961;-64
2022/03/05 06:22:53;;;;;;;;;;;;;;;;;;5094676;28;20301;-64
2022/03/05 06:25:20;;;;;;;;;;;;;;;;;;5094175;28;20306;-59
2022/03/05 06:27:46;;;;;;;;;;;;;;;;;;5093860;28;20016;-60
2022/03/05 06:30:13;;;;;;;;;;;;;;;;;;5094644;28;20020;-57
2022/03/05 06:32:39;;;;;;;;;;;;;;;;;;5094299;28;19919;-58
2022/03/05 06:35:06;;;;;;;;;;;;;;;;;;5094453;28;19920;-60
2022/03/05 06:37:32;;;;;;;;;;;;;;;;;;5094579;28;19908;-60
2022/03/05 06:39:59;;;;;;;;;;;;;;;;;;5094499;28;19908;-60
2022/03/05 06:42:26;;;;;;;;;;;;;;;;;;5093687;28;19915;-56
2022/03/05 06:44:52;;;;;;;;;;;;;;;;;;5094400;28;19943;-53
2022/03/05 06:47:19;;;;;;;;;;;;;;;;;;5092567;28;19916;-55
2022/03/05 06:49:45;;;;;;;;;;;;;;;;;;5093256;28;20297;-54
2022/03/05 06:52:12;;;;;;;;;;;;;;;;;;5094238;28;19915;-56
2022/03/05 06:54:38;;;;;;;;;;;;;;;;;;5094010;28;20375;-57
2022/03/05 06:57:05;;;;;;;;;;;;;;;;;;5094737;28;19908;-65
2022/03/05 06:59:32;;;;;;;;;;;;;;;;;;5094246;28;19915;-60
2022/03/05 07:01:58;;;;;;;;;;;;;;;;;;5094435;28;20270;-62
2022/03/05 07:04:25;;;;;;;;;;;;;;;;;;5094912;28;20400;-56
2022/03/05 07:06:51;;;;;;;;;;;;;;;;;;5094045;28;20227;-64
2022/03/05 07:09:18;;;;;;;;;;;;;;;;;;5093896;28;19947;-60
2022/03/05 07:11:44;;;;;;;;;;;;;;;;;;5094225;28;19915;-65
2022/03/05 07:14:11;;;;;;;;;;;;;;;;;;5094131;28;19908;-66
2022/03/05 07:16:37;;;;;;;;;;;;;;;;;;5094050;28;19954;-61
2022/03/05 07:19:04;;;;;;;;;;;;;;;;;;5094069;28;20324;-58
2022/03/05 07:21:30;;;;;;;;;;;;;;;;;;5092306;28;19912;-60
2022/03/05 07:23:58;;;;;;;;;;;;;;;;;;5094009;28;19973;-59
2022/03/05 07:26:25;;;;;;;;;;;;;;;;;;5093813;28;19923;-52
2022/03/05 07:28:51;;;;;;;;;;;;;;;;;;5093784;28;19950;-55
2022/03/05 07:31:18;;;;;;;;;;;;;;;;;;5092729;28;19991;-56
2022/03/05 07:33:44;;;;;;;;;;;;;;;;;;5085710;28;19912;-59
2022/03/05 07:36:11;;;;;;;;;;;;;;;;;;5090908;28;19953;-55
2022/03/05 07:38:41;;;;;;;;;;;;;;;;;;5090087;28;19915;-53
2022/03/05 07:41:07;;;;;;;;;;;;;;;;;;5088999;28;20010;-51
2022/03/05 07:43:33;;;;;;;;;;;;;;;;;;5089712;28;19943;-54
2022/03/05 07:46:00;;;;;;;;;;;;;;;;;;5089674;28;19924;-53
2022/03/05 07:48:26;;;;;;;;;;;;;;;;;;5090022;28;20358;-52
2022/03/05 07:50:53;;;;;;;;;;;;;;;;;;5090213;28;19962;-56
2022/03/05 07:53:19;;;;;;;;;;;;;;;;;;5088628;28;19918;-54
2022/03/05 07:55:46;;;;;;;;;;;;;;;;;;5088704;28;19967;-57
2022/03/05 07:58:12;;;;;;;;;;;;;;;;;;5090271;28;20363;-62
2022/03/05 08:00:39;;;;;;;;;;;;;;;;;;5087095;28;19908;-57
2022/03/05 08:03:05;;;;;;;;;;;;;;;;;;5087102;28;19924;-56
2022/03/05 08:05:32;;;;;;;;;;;;;;;;;;5089793;28;19928;-55
2022/03/05 08:07:58;;;;;;;;;;;;;;;;;;5089970;28;19909;-58
2022/03/05 08:10:25;;;;;;;;;;;;;;;;;;5089702;28;19908;-57
2022/03/05 08:12:51;;;;;;;;;;;;;;;;;;5086576;28;19950;-51
2022/03/05 08:15:18;;;;;;;;;;;;;;;;;;5090074;28;19915;-52
2022/03/05 08:17:44;;;;;;;;;;;;;;;;;;5088696;28;19931;-58
2022/03/05 08:20:11;;;;;;;;;;;;;;;;;;5089881;28;19953;-61
2022/03/05 08:22:37;;;;;;;;;;;;;;;;;;5086334;28;19908;-58
2022/03/05 08:25:03;;;;;;;;;;;;;;;;;;5089685;28;19908;-56
2022/03/05 08:27:30;;;;;;;;;;;;;;;;;;5089727;28;20044;-62
2022/03/05 08:29:56;;;;;;;;;;;;;;;;;;5089143;28;19909;-54
2022/03/05 08:32:23;;;;;;;;;;;;;;;;;;5087681;28;19938;-58
2022/03/05 08:34:49;;;;;;;;;;;;;;;;;;5090134;28;20028;-51
2022/03/05 08:37:16;;;;;;;;;;;;;;;;;;5089813;28;19908;-56
2022/03/05 08:39:42;;;;;;;;;;;;;;;;;;5088689;28;19912;-58
2022/03/05 08:42:09;;;;;;;;;;;;;;;;;;5087000;28;19908;-56
2022/03/05 08:44:35;;;;;;;;;;;;;;;;;;5087555;28;19914;-53
2022/03/05 08:47:02;;;;;;;;;;;;;;;;;;5086509;28;19981;-53
2022/03/05 08:49:28;;;;;;;;;;;;;;;;;;5087561;28;19915;-54
2022/03/05 08:51:54;;;;;;;;;;;;;;;;;;5087374;28;19974;-55
2022/03/05 08:54:21;;;;;;;;;;;;;;;;;;5085183;28;20467;-53
2022/03/05 08:56:47;;;;;;;;;;;;;;;;;;5087021;28;19926;-57
2022/03/05 08:59:14;;;;;;;;;;;;;;;;;;5088148;28;19908;-58
2022/03/05 09:01:40;;;;;;;;;;;;;;;;;;5084748;28;19908;-50
2022/03/05 09:04:07;;;;;;;;;;;;;;;;;;5087186;28;19916;-55
2022/03/05 09:06:33;;;;;;;;;;;;;;;;;;5091082;28;19947;-54
2022/03/05 09:09:00;;;;;;;;;;;;;;;;;;5090913;28;19923;-52
2022/03/05 09:11:26;;;;;;;;;;;;;;;;;;5091833;28;19922;-57
2022/03/05 09:13:53;;;;;;;;;;;;;;;;;;5089933;28;20343;-56
2022/03/05 09:16:19;;;;;;;;;;;;;;;;;;5092919;28;20065;-55
2022/03/05 09:18:46;;;;;;;;;;;;;;;;;;5093353;28;20305;-53
2022/03/05 09:21:12;;;;;;;;;;;;;;;;;;5092913;28;20541;-55
2022/03/05 09:23:39;;;;;;;;;;;;;;;;;;5090266;28;20358;-52
2022/03/05 09:26:05;;;;;;;;;;;;;;;;;;5093579;28;19928;-57
2022/03/05 09:28:32;;;;;;;;;;;;;;;;;;5095524;28;19916;-52
2022/03/05 09:31:01;;;;;;;;;;;;;;;;;;5093983;28;19945;-53
2022/03/05 09:33:28;;;;;;;;;;;;;;;;;;5090011;28;19908;-49
2022/03/05 09:35:54;;;;;;;;;;;;;;;;;;5093161;28;19917;-57
2022/03/05 09:38:21;;;;;;;;;;;;;;;;;;5092871;28;19908;-53
2022/03/05 09:40:47;;;;;;;;;;;;;;;;;;5093040;28;19912;-56
2022/03/05 09:43:14;;;;;;;;;;;;;;;;;;5089693;28;20362;-50
2022/03/05 09:45:40;;;;;;;;;;;;;;;;;;5092907;28;20305;-50
2022/03/05 09:48:06;;;;;;;;;;;;;;;;;;5093228;28;19915;-55
2022/03/05 09:50:33;;;;;;;;;;;;;;;;;;5092169;28;19909;-49
2022/03/05 09:52:59;;;;;;;;;;;;;;;;;;5089699;28;20379;-55
2022/03/05 09:55:26;;;;;;;;;;;;;;;;;;5092718;28;19973;-57
2022/03/05 09:57:52;;;;;;;;;;;;;;;;;;5092607;28;19908;-56
2022/03/05 10:00:19;;;;;;;;;;;;;;;;;;5092454;28;19908;-58
2022/03/05 10:02:45;;;;;;;;;;;;;;;;;;5089749;28;19920;-56
2022/03/05 10:05:12;;;;;;;;;;;;;;;;;;5092162;28;19908;-54
2022/03/05 10:07:38;;;;;;;;;;;;;;;;;;5092483;28;19908;-63
2022/03/05 10:10:05;;;;;;;;;;;;;;;;;;5092457;28;19908;-56
2022/03/05 10:12:31;;;;;;;;;;;;;;;;;;5089565;28;21164;-51
2022/03/05 10:14:58;;;;;;;;;;;;;;;;;;5091980;28;19958;-59
2022/03/05 10:17:25;;;;;;;;;;;;;;;;;;5090165;28;20407;-52
2022/03/05 10:19:51;;;;;;;;;;;;;;;;;;5092428;28;20343;-54
2022/03/05 10:22:17;;;;;;;;;;;;;;;;;;5089156;28;20303;-52
2022/03/05 10:24:44;;;;;;;;;;;;;;;;;;5092132;28;20339;-58
2022/03/05 10:27:10;;;;;;;;;;;;;;;;;;5091693;28;19924;-55
2022/03/05 10:29:39;;;;;;;;;;;;;;;;;;5091270;28;19961;-58
2022/03/05 10:32:08;;;;;;;;;;;;;;;;;;5089755;28;19912;-58
2022/03/05 10:34:35;;;;;;;;;;;;;;;;;;5092062;28;19908;-55
2022/03/05 10:37:03;;;;;;;;;;;;;;;;;;5091667;28;19916;-56
2022/03/05 10:39:29;;;;;;;;;;;;;;;;;;5091345;28;20002;-50
2022/03/05 10:41:56;;;;;;;;;;;;;;;;;;5089343;28;19955;-57
2022/03/05 10:44:22;;;;;;;;;;;;;;;;;;5091202;28;19942;-61
2022/03/05 10:46:49;;;;;;;;;;;;;;;;;;5091042;28;20372;-59
2022/03/05 10:49:15;;;;;;;;;;;;;;;;;;5091593;28;19946;-55
2022/03/05 10:51:42;;;;;;;;;;;;;;;;;;5091028;28;19916;-55
2022/03/05 10:54:08;;;;;;;;;;;;;;;;;;5090402;28;20307;-60
2022/03/05 10:56:35;;;;;;;;;;;;;;;;;;5094934;28;20366;-62
2022/03/05 10:59:01;;;;;;;;;;;;;;;;;;5094633;28;20003;-64
2022/03/05 11:01:28;;;;;;;;;;;;;;;;;;5091545;28;20389;-58
2022/03/05 11:03:55;;;;;;;;;;;;;;;;;;5094061;28;19927;-61
2022/03/05 11:06:21;;;;;;;;;;;;;;;;;;5094202;28;19916;-63
2022/03/05 11:08:47;;;;;;;;;;;;;;;;;;5094029;28;19908;-65
2022/03/05 11:11:14;;;;;;;;;;;;;;;;;;5093902;28;19955;-61
2022/03/05 11:13:40;;;;;;;;;;;;;;;;;;5094018;28;20362;-58
2022/03/05 11:16:07;;;;;;;;;;;;;;;;;;5093830;28;20325;-60
2022/03/05 11:18:33;;;;;;;;;;;;;;;;;;5094051;28;20246;-62
2022/03/05 11:21:00;;;;;;;;;;;;;;;;;;5093476;28;19916;-53
2022/03/05 11:23:26;;;;;;;;;;;;;;;;;;5094181;28;19939;-60
2022/03/05 11:25:53;;;;;;;;;;;;;;;;;;5094156;28;19941;-62
2022/03/05 11:28:19;;;;;;;;;;;;;;;;;;5093456;28;19915;-56
2022/03/05 11:30:46;;;;;;;;;;;;;;;;;;5089480;28;20006;-59
2022/03/05 11:33:12;;;;;;;;;;;;;;;;;;5090307;28;19916;-53
2022/03/05 11:35:44;;;;;;;;;;;;;;;;;;5088574;28;19908;-55
2022/03/05 11:38:11;;;;;;;;;;;;;;;;;;5087070;28;19931;-53
2022/03/05 11:40:37;;;;;;;;;;;;;;;;;;5089613;28;19912;-56
2022/03/05 11:43:04;;;;;;;;;;;;;;;;;;5089732;28;19915;-55
2022/03/05 11:45:32;;;;;;;;;;;;;;;;;;5090277;28;19970;-54
2022/03/05 11:47:58;;;;;;;;;;;;;;;;;;5087484;28;19908;-57
2022/03/05 11:50:25;;;;;;;;;;;;;;;;;;5090405;28;20367;-60
2022/03/05 11:52:51;;;;;;;;;;;;;;;;;;5089396;28;19916;-56
2022/03/05 11:55:18;;;;;;;;;;;;;;;;;;5089789;28;20376;-55
2022/03/05 11:57:44;;;;;;;;;;;;;;;;;;5089677;28;19916;-52
2022/03/05 12:00:11;;;;;;;;;;;;;;;;;;5089587;28;19987;-51
2022/03/05 12:02:38;;;;;;;;;;;;;;;;;;5090361;28;21242;-51
2022/03/05 12:05:10;;;;;;;;;;;;;;;;;;5090011;28;19923;-59
2022/03/05 12:07:36;;;;;;;;;;;;;;;;;;5090583;28;19942;-52
2022/03/05 12:10:06;;;;;;;;;;;;;;;;;;5086997;28;20355;-55
2022/03/05 12:12:33;;;;;;;;;;;;;;;;;;5089874;28;19908;-53
2022/03/05 12:14:59;;;;;;;;;;;;;;;;;;5090726;28;19916;-53
2022/03/05 12:17:26;;;;;;;;;;;;;;;;;;5090428;28;19969;-49
2022/03/05 12:19:52;;;;;;;;;;;;;;;;;;5087577;28;19917;-56
2022/03/05 12:22:19;;;;;;;;;;;;;;;;;;5089482;28;19912;-54
2022/03/05 12:24:45;;;;;;;;;;;;;;;;;;5089781;28;19953;-54
2022/03/05 12:27:12;;;;;;;;;;;;;;;;;;5089886;28;19999;-56
2022/03/05 12:29:38;;;;;;;;;;;;;;;;;;5088334;28;19954;-54
2022/03/05 12:32:05;;;;;;;;;;;;;;;;;;5089775;28;19999;-54
2022/03/05 12:34:31;;;;;;;;;;;;;;;;;;5090015;28;19955;-53
2022/03/05 12:36:58;;;;;;;;;;;;;;;;;;5090178;28;19908;-51
2022/03/05 12:39:24;;;;;;;;;;;;;;;;;;5086438;28;19957;-52
2022/03/05 12:41:51;;;;;;;;;;;;;;;;;;5089413;28;19916;-56
2022/03/05 12:44:17;;;;;;;;;;;;;;;;;;5088528;28;20362;-49
2022/03/05 12:46:44;;;;;;;;;;;;;;;;;;5090040;28;19916;-53
2022/03/05 12:49:10;;;;;;;;;;;;;;;;;;5087017;28;20286;-49
2022/03/05 12:51:36;;;;;;;;;;;;;;;;;;5089793;28;20056;-50
2022/03/05 12:54:03;;;;;;;;;;;;;;;;;;5088082;28;19919;-58
2022/03/05 12:56:29;;;;;;;;;;;;;;;;;;5089388;28;20130;-53
2022/03/05 12:58:57;;;;;;;;;;;;;;;;;;5086727;28;19916;-59
2022/03/05 13:01:23;;;;;;;;;;;;;;;;;;5090037;28;19948;-54
2022/03/05 13:03:50;;;;;;;;;;;;;;;;;;5089330;28;19928;-51
2022/03/05 13:06:16;;;;;;;;;;;;;;;;;;5088859;28;20368;-49
2022/03/05 13:08:43;;;;;;;;;;;;;;;;;;5086677;28;20091;-54
2022/03/05 13:11:09;;;;;;;;;;;;;;;;;;5089952;28;19908;-53
2022/03/05 13:13:36;;;;;;;;;;;;;;;;;;5090003;28;20355;-55
2022/03/05 13:16:02;;;;;;;;;;;;;;;;;;5089423;28;19918;-53
2022/03/05 13:18:29;;;;;;;;;;;;;;;;;;5087238;28;19908;-49
2022/03/05 13:20:55;;;;;;;;;;;;;;;;;;5089866;28;19915;-54
2022/03/05 13:23:22;;;;;;;;;;;;;;;;;;5089493;28;19909;-54
2022/03/05 13:25:49;;;;;;;;;;;;;;;;;;5089376;28;19912;-52
2022/03/05 13:28:15;;;;;;;;;;;;;;;;;;5091486;28;19915;-50
2022/03/05 13:30:41;;;;;;;;;;;;;;;;;;5085768;28;20362;-57
2022/03/05 13:33:08;;;;;;;;;;;;;;;;;;5088934;28;19931;-54
2022/03/05 13:35:34;;;;;;;;;;;;;;;;;;5089496;28;19914;-56
2022/03/05 13:38:01;;;;;;;;;;;;;;;;;;5089468;28;19912;-53
2022/03/05 13:40:28;;;;;;;;;;;;;;;;;;5087656;28;19948;-55
2022/03/05 13:42:57;;;;;;;;;;;;;;;;;;5089500;28;19915;-58
2022/03/05 13:45:24;;;;;;;;;;;;;;;;;;5088928;28;19916;-53
2022/03/05 13:47:50;;;;;;;;;;;;;;;;;;5089155;28;19916;-49
2022/03/05 13:50:18;;;;;;;;;;;;;;;;;;5088885;28;19908;-51
2022/03/05 13:52:45;;;;;;;;;;;;;;;;;;5090267;28;19915;-47
2022/03/05 13:55:13;;;;;;;;;;;;;;;;;;5092858;28;19915;-54
2022/03/05 13:57:40;;;;;;;;;;;;;;;;;;5093141;28;20000;-50
2022/03/05 14:00:06;;;;;;;;;;;;;;;;;;5091939;28;19908;-50
2022/03/05 14:02:33;;;;;;;;;;;;;;;;;;5090119;28;19923;-57
2022/03/05 14:04:59;;;;;;;;;;;;;;;;;;5089635;28;19954;-61
2022/03/05 14:07:26;;;;;;;;;;;;;;;;;;5092389;28;19916;-53
2022/03/05 14:09:52;;;;;;;;;;;;;;;;;;5092659;28;19956;-51
2022/03/05 14:12:19;;;;;;;;;;;;;;;;;;5090382;28;19915;-53
2022/03/05 14:14:45;;;;;;;;;;;;;;;;;;5092927;28;19908;-58
2022/03/05 14:17:11;;;;;;;;;;;;;;;;;;5091837;28;19912;-55
2022/03/05 14:19:38;;;;;;;;;;;;;;;;;;5093009;28;20368;-59
2022/03/05 14:22:04;;;;;;;;;;;;;;;;;;5090100;28;20278;-55
2022/03/05 14:24:31;;;;;;;;;;;;;;;;;;5093436;28;20018;-57
2022/03/05 14:26:57;;;;;;;;;;;;;;;;;;5092526;28;19916;-53
2022/03/05 14:29:24;;;;;;;;;;;;;;;;;;5092610;28;20035;-54
2022/03/05 14:31:50;;;;;;;;;;;;;;;;;;5089498;28;19965;-57
2022/03/05 14:34:17;;;;;;;;;;;;;;;;;;5091818;28;19915;-52
2022/03/05 14:36:43;;;;;;;;;;;;;;;;;;5088742;28;19916;-55
2022/03/05 14:39:11;;;;;;;;;;;;;;;;;;5092243;28;19945;-53
2022/03/05 14:41:37;;;;;;;;;;;;;;;;;;5089158;28;19966;-51
2022/03/05 14:44:04;;;;;;;;;;;;;;;;;;5091153;28;19919;-52
2022/03/05 14:46:30;;;;;;;;;;;;;;;;;;5091377;28;19931;-53
2022/03/05 14:48:57;;;;;;;;;;;;;;;;;;5091946;28;19916;-55
2022/03/05 14:51:23;;;;;;;;;;;;;;;;;;5089346;28;19994;-58
2022/03/05 14:53:50;;;;;;;;;;;;;;;;;;5091498;28;19912;-52
2022/03/05 14:56:16;;;;;;;;;;;;;;;;;;5091516;28;19908;-55
2022/03/05 14:58:43;;;;;;;;;;;;;;;;;;5091805;28;19916;-53
2022/03/05 15:01:09;;;;;;;;;;;;;;;;;;5088811;28;19908;-52
2022/03/05 15:03:35;;;;;;;;;;;;;;;;;;5090630;28;19928;-61
2022/03/05 15:06:02;;;;;;;;;;;;;;;;;;5091136;28;19916;-54
2022/03/05 15:08:28;;;;;;;;;;;;;;;;;;5091286;28;19909;-52
2022/03/05 15:10:55;;;;;;;;;;;;;;;;;;5088110;28;19911;-47
2022/03/05 15:13:21;;;;;;;;;;;;;;;;;;5091000;28;19915;-55
2022/03/05 15:15:48;;;;;;;;;;;;;;;;;;5091063;28;19977;-49
2022/03/05 15:18:14;;;;;;;;;;;;;;;;;;5091219;28;19908;-51
2022/03/05 15:20:42;;;;;;;;;;;;;;;;;;5088090;28;19922;-59
2022/03/05 15:23:09;;;;;;;;;;;;;;;;;;5091233;28;20427;-60
2022/03/05 15:25:36;;;;;;;;;;;;;;;;;;5091781;28;19993;-58
2022/03/05 15:28:02;;;;;;;;;;;;;;;;;;5090601;28;19958;-59
2022/03/05 15:30:29;;;;;;;;;;;;;;;;;;5089338;28;19912;-61
2022/03/05 15:32:56;;;;;;;;;;;;;;;;;;5090724;28;19908;-54
2022/03/05 15:35:22;;;;;;;;;;;;;;;;;;5093137;28;19990;-61
2022/03/05 15:37:52;;;;;;;;;;;;;;;;;;5094071;28;19908;-60
2022/03/05 15:40:19;;;;;;;;;;;;;;;;;;5093956;28;19908;-61
2022/03/05 15:42:45;;;;;;;;;;;;;;;;;;5094282;28;20008;-62
2022/03/05 15:45:12;;;;;;;;;;;;;;;;;;5094016;28;19915;-60
2022/03/05 15:47:39;;;;;;;;;;;;;;;;;;5093775;28;20008;-62
2022/03/05 15:50:05;;;;;;;;;;;;;;;;;;5093990;28;19908;-59
2022/03/05 15:52:32;;;;;;;;;;;;;;;;;;5093748;28;19916;-54
2022/03/05 15:54:58;;;;;;;;;;;;;;;;;;5093849;28;19908;-58
2022/03/05 15:57:24;;;;;;;;;;;;;;;;;;5094477;28;19908;-62
2022/03/05 15:59:51;;;;;;;;;;;;;;;;;;5093858;28;19908;-62
2022/03/05 16:02:17;;;;;;;;;;;;;;;;;;5092460;28;19923;-62
2022/03/05 16:04:44;;;;;;;;;;;;;;;;;;5093793;28;19933;-52
2022/03/05 16:07:10;;;;;;;;;;;;;;;;;;5093450;28;19927;-59
2022/03/05 16:09:37;;;;;;;;;;;;;;;;;;5093647;28;20424;-57
2022/03/05 16:12:03;;;;;;;;;;;;;;;;;;5093622;28;19908;-58
2022/03/05 16:14:30;;;;;;;;;;;;;;;;;;5093383;28;19998;-60
2022/03/05 16:16:56;;;;;;;;;;;;;;;;;;5093442;28;19992;-52
2022/03/05 16:19:23;;;;;;;;;;;;;;;;;;5093468;28;19915;-56
2022/03/05 16:21:49;;;;;;;;;;;;;;;;;;5093405;28;20473;-56
2022/03/05 16:24:16;;;;;;;;;;;;;;;;;;5093283;28;19908;-60
2022/03/05 16:26:42;;;;;;;;;;;;;;;;;;5093435;28;20010;-50
2022/03/05 16:29:09;;;;;;;;;;;;;;;;;;5093465;28;19912;-57
2022/03/05 16:31:35;;;;;;;;;;;;;;;;;;5093428;28;19961;-61
2022/03/05 16:34:02;;;;;;;;;;;;;;;;;;5093287;28;19962;-60
2022/03/05 16:36:28;;;;;;;;;;;;;;;;;;5092832;28;19918;-61
2022/03/05 16:38:55;;;;;;;;;;;;;;;;;;5093191;28;20255;-60
2022/03/05 16:41:21;;;;;;;;;;;;;;;;;;5093591;28;20003;-59
2022/03/05 16:43:48;;;;;;;;;;;;;;;;;;5093173;28;19912;-63